createdAt,value
2023-04-19T00:02:22.530Z,9.79
2023-04-19T00:04:49.318Z,9.73
2023-04-19T00:07:17.086Z,9.68
2023-04-19T00:09:43.685Z,9.64
2023-04-19T00:12:10.247Z,9.60
2023-04-19T00:14:36.768Z,9.54
2023-04-19T00:17:03.725Z,9.49
2023-04-19T00:19:30.528Z,9.43
2023-04-19T00:21:57.078Z,9.37
2023-04-19T00:24:23.585Z,9.32
2023-04-19T00:26:50.155Z,9.29
2023-04-19T00:29:16.761Z,9.25
2023-04-19T00:31:43.360Z,9.21
2023-04-19T00:34:09.967Z,9.15
2023-04-19T00:36:37.679Z,9.11
2023-04-19T00:39:04.302Z,9.06
2023-04-19T00:41:30.936Z,9.03
2023-04-19T00:43:57.655Z,9.01
2023-04-19T00:46:25.205Z,9.02
2023-04-19T00:48:52.193Z,9.03
2023-04-19T00:51:19.707Z,9.03
2023-04-19T00:53:46.648Z,9.01
2023-04-19T00:56:14.750Z,9.01
2023-04-19T00:58:41.571Z,9.02
2023-04-19T01:01:09.229Z,9.02
2023-04-19T01:03:36.788Z,9.03
2023-04-19T01:06:03.782Z,9.05
2023-04-19T01:08:30.786Z,9.05
2023-04-19T01:10:57.345Z,9.07
2023-04-19T01:13:23.916Z,9.07
2023-04-19T01:15:51.680Z,9.06
2023-04-19T01:18:20.646Z,9.04
2023-04-19T01:20:48.381Z,8.99
2023-04-19T01:23:15.343Z,8.97
2023-04-19T01:25:41.888Z,8.95
2023-04-19T01:28:08.451Z,8.94
2023-04-19T01:30:35.535Z,8.94
2023-04-19T01:33:02.136Z,8.93
2023-04-19T01:35:29.603Z,8.92
2023-04-19T01:37:56.224Z,8.91
2023-04-19T01:40:25.634Z,8.90
2023-04-19T01:42:52.809Z,8.88
2023-04-19T01:45:19.530Z,8.86
2023-04-19T01:47:46.114Z,8.83
2023-04-19T01:50:12.809Z,8.82
2023-04-19T01:52:39.552Z,8.79
2023-04-19T01:55:06.320Z,8.77
2023-04-19T01:57:32.888Z,8.75
2023-04-19T01:59:59.501Z,8.74
2023-04-19T02:02:26.457Z,8.72
2023-04-19T02:04:53.796Z,8.69
2023-04-19T02:07:20.388Z,8.66
2023-04-19T02:09:46.980Z,8.63
2023-04-19T02:12:13.572Z,8.64
2023-04-19T02:14:40.112Z,8.64
2023-04-19T02:17:09.218Z,8.63
2023-04-19T02:19:36.297Z,8.63
2023-04-19T02:22:03.065Z,8.64
2023-04-19T02:24:29.593Z,8.66
2023-04-19T02:26:56.886Z,8.68
2023-04-19T02:29:23.778Z,8.70
2023-04-19T02:31:50.668Z,8.69
2023-04-19T02:34:17.781Z,8.68
2023-04-19T02:36:44.594Z,8.67
2023-04-19T02:39:11.211Z,8.68
2023-04-19T02:41:38.037Z,8.67
2023-04-19T02:44:05.042Z,8.66
2023-04-19T02:46:31.766Z,8.66
2023-04-19T02:49:01.116Z,8.67
2023-04-19T02:51:27.707Z,8.67
2023-04-19T02:53:54.291Z,8.66
2023-04-19T02:56:20.952Z,8.66
2023-04-19T02:58:47.616Z,8.67
2023-04-19T03:01:14.268Z,8.68
2023-04-19T03:03:41.215Z,8.70
2023-04-19T03:06:09.055Z,8.69
2023-04-19T03:08:36.384Z,8.67
2023-04-19T03:11:03.029Z,8.66
2023-04-19T03:13:30.423Z,8.66
2023-04-19T03:15:56.969Z,8.64
2023-04-19T03:18:23.539Z,8.64
2023-04-19T03:20:50.939Z,8.61
2023-04-19T03:23:17.486Z,8.61
2023-04-19T03:25:44.553Z,8.62
2023-04-19T03:28:18.552Z,8.57
2023-04-19T03:31:10.909Z,8.52
2023-04-19T03:33:38.346Z,8.49
2023-04-19T03:36:05.788Z,8.47
2023-04-19T03:38:32.500Z,8.47
2023-04-19T03:40:59.795Z,8.47
2023-04-19T03:43:27.959Z,8.48
2023-04-19T03:45:54.519Z,8.46
2023-04-19T03:48:21.487Z,8.46
2023-04-19T03:50:48.064Z,8.45
2023-04-19T03:53:16.105Z,8.45
2023-04-19T03:55:42.638Z,8.46
2023-04-19T03:58:10.044Z,8.46
2023-04-19T04:00:44.381Z,8.45
2023-04-19T04:03:11.175Z,8.43
2023-04-19T04:05:38.888Z,8.44
2023-04-19T04:08:05.642Z,8.46
2023-04-19T04:10:32.247Z,8.44
2023-04-19T04:12:58.931Z,8.42
2023-04-19T04:15:33.364Z,8.41
2023-04-19T04:18:00.353Z,8.40
2023-04-19T04:20:27.040Z,8.41
2023-04-19T04:22:56.988Z,8.42
2023-04-19T04:25:24.253Z,8.39
2023-04-19T04:27:52.309Z,8.39
2023-04-19T04:30:19.962Z,8.41
2023-04-19T04:32:47.621Z,8.44
2023-04-19T04:35:14.868Z,8.48
2023-04-19T04:37:44.818Z,8.52
2023-04-19T04:40:12.113Z,8.51
2023-04-19T04:42:38.820Z,8.53
2023-04-19T04:45:06.137Z,8.57
2023-04-19T04:47:34.020Z,8.60
2023-04-19T04:50:03.575Z,8.62
2023-04-19T04:52:30.550Z,8.65
2023-04-19T04:55:17.432Z,8.71
2023-04-19T04:57:44.397Z,8.75
2023-04-19T05:00:23.386Z,8.80
2023-04-19T05:02:55.932Z,8.82
2023-04-19T05:05:22.770Z,8.83
2023-04-19T05:07:49.392Z,8.85
2023-04-19T05:10:16.571Z,8.85
2023-04-19T05:12:44.904Z,8.87
2023-04-19T05:15:12.131Z,8.90
2023-04-19T05:17:43.198Z,8.94
2023-04-19T05:20:10.479Z,8.99
2023-04-19T05:22:37.717Z,9.02
2023-04-19T05:25:05.974Z,9.04
2023-04-19T05:27:32.637Z,9.05
2023-04-19T05:29:59.201Z,9.09
2023-04-19T05:32:27.530Z,9.12
2023-04-19T05:34:56.395Z,9.11
2023-04-19T05:37:24.479Z,9.14
2023-04-19T05:39:51.398Z,9.18
2023-04-19T05:42:18.689Z,9.21
2023-04-19T05:44:45.286Z,9.21
2023-04-19T05:47:12.290Z,9.24
2023-04-19T05:50:03.115Z,9.25
2023-04-19T05:52:33.052Z,9.30
2023-04-19T05:55:01.431Z,9.33
2023-04-19T05:57:30.596Z,9.41
2023-04-19T05:59:57.732Z,9.47
2023-04-19T06:02:26.851Z,9.49
2023-04-19T06:04:53.692Z,9.51
2023-04-19T06:07:31.009Z,9.53
2023-04-19T06:10:02.237Z,9.58
2023-04-19T06:12:28.911Z,9.63
2023-04-19T06:14:55.604Z,9.65
2023-04-19T06:17:25.289Z,9.58
2023-04-19T06:19:53.191Z,9.52
2023-04-19T06:22:20.480Z,9.48
2023-04-19T06:24:47.689Z,9.42
2023-04-19T06:27:16.495Z,9.36
2023-04-19T06:29:43.009Z,9.33
2023-04-19T06:32:09.679Z,9.30
2023-04-19T06:34:36.414Z,9.27
2023-04-19T06:37:02.950Z,9.27
2023-04-19T06:39:29.490Z,9.25
2023-04-19T06:41:55.990Z,9.25
2023-04-19T06:44:22.507Z,9.25
2023-04-19T06:46:49.131Z,9.22
2023-04-19T06:49:15.682Z,9.21
2023-04-19T06:51:42.199Z,9.22
2023-04-19T06:54:08.751Z,9.22
2023-04-19T06:56:46.962Z,9.23
2023-04-19T06:59:20.599Z,9.28
2023-04-19T07:01:47.988Z,9.33
2023-04-19T07:04:15.517Z,9.37
2023-04-19T07:06:42.378Z,9.41
2023-04-19T07:09:08.903Z,9.42
2023-04-19T07:11:35.514Z,9.43
2023-04-19T07:14:02.159Z,9.44
2023-04-19T07:16:28.989Z,9.46
2023-04-19T07:18:55.916Z,9.49
2023-04-19T07:21:22.674Z,9.49
2023-04-19T07:23:49.239Z,9.52
2023-04-19T07:26:15.993Z,9.55
2023-04-19T07:28:42.615Z,9.57
2023-04-19T07:31:16.382Z,9.61
2023-04-19T07:33:43.921Z,9.66
2023-04-19T07:36:11.568Z,9.75
2023-04-19T07:38:38.235Z,9.87
2023-04-19T07:41:05.509Z,10.00
2023-04-19T07:43:32.030Z,10.05
2023-04-19T07:45:58.701Z,10.09
2023-04-19T07:48:25.296Z,10.16
2023-04-19T07:50:51.889Z,10.23
2023-04-19T07:53:18.830Z,10.30
2023-04-19T07:55:45.930Z,10.38
2023-04-19T07:58:12.485Z,10.41
2023-04-19T08:00:39.309Z,10.41
2023-04-19T08:03:06.204Z,10.42
2023-04-19T08:05:33.061Z,10.45
2023-04-19T08:07:59.923Z,10.47
2023-04-19T08:10:28.705Z,10.50
2023-04-19T08:13:05.074Z,10.59
2023-04-19T08:18:05.047Z,10.79
2023-04-19T08:20:32.567Z,10.90
2023-04-19T08:23:04.527Z,11.04
2023-04-19T08:25:37.283Z,11.25
2023-04-19T08:28:04.721Z,11.40
2023-04-19T08:30:32.091Z,11.42
2023-04-19T08:32:58.812Z,11.46
2023-04-19T08:35:25.616Z,11.57
2023-04-19T08:37:52.230Z,11.68
2023-04-19T08:40:19.186Z,11.80
2023-04-19T08:42:45.948Z,11.94
2023-04-19T08:45:27.104Z,12.12
2023-04-19T08:48:01.197Z,12.17
2023-04-19T08:53:12.243Z,12.31
2023-04-19T08:56:07.848Z,12.48
2023-04-19T08:58:46.701Z,12.63
2023-04-19T09:01:31.063Z,12.79
2023-04-19T09:04:26.575Z,12.85
2023-04-19T09:06:52.483Z,12.68
2023-04-19T09:11:52.995Z,12.31
2023-04-19T09:14:20.949Z,12.11
2023-04-19T09:16:48.521Z,11.89
2023-04-19T09:19:24.304Z,11.72
2023-04-19T09:21:54.151Z,11.58
2023-04-19T09:25:02.508Z,11.55
2023-04-19T09:27:30.843Z,11.54
2023-04-19T09:29:59.878Z,11.53
2023-04-19T09:32:28.213Z,11.57
2023-04-19T09:35:00.297Z,11.63
2023-04-19T09:39:56.962Z,11.77
2023-04-19T09:42:42.212Z,12.04
2023-04-19T09:47:40.053Z,12.34
2023-04-19T09:50:21.713Z,12.41
2023-04-19T09:52:50.090Z,12.36
2023-04-19T09:57:48.308Z,12.19
2023-04-19T10:00:15.618Z,12.19
2023-04-19T10:02:42.567Z,12.23
2023-04-19T10:05:20.393Z,12.19
2023-04-19T10:07:49.597Z,12.14
2023-04-19T10:10:20.892Z,12.11
2023-04-19T10:15:25.123Z,12.02
2023-04-19T10:17:52.780Z,12.02
2023-04-19T10:20:25.045Z,11.98
2023-04-19T10:22:51.926Z,11.95
2023-04-19T10:25:18.778Z,11.98
2023-04-19T10:27:51.295Z,12.03
2023-04-19T10:30:18.631Z,12.17
2023-04-19T10:32:51.882Z,12.38
2023-04-19T10:35:32.188Z,12.59
2023-04-19T10:38:08.771Z,12.72
2023-04-19T10:40:57.692Z,12.93
2023-04-19T10:43:25.501Z,13.40
2023-04-19T10:45:52.835Z,13.79
2023-04-19T10:48:40.042Z,14.17
2023-04-19T10:51:19.484Z,14.74
2023-04-19T10:53:50.801Z,15.37
2023-04-19T10:56:21.582Z,15.96
2023-04-19T10:59:00.170Z,16.34
2023-04-19T11:01:38.211Z,16.27
2023-04-19T11:04:09.145Z,16.31
2023-04-19T11:06:38.255Z,16.39
2023-04-19T11:09:10.118Z,16.43
2023-04-19T11:11:36.829Z,16.31
2023-04-19T11:14:07.036Z,16.04
2023-04-19T11:16:45.073Z,15.57
2023-04-19T11:19:17.290Z,15.35
2023-04-19T11:21:48.595Z,15.16
2023-04-19T11:24:19.024Z,14.97
2023-04-19T11:26:47.053Z,14.89
2023-04-19T11:29:14.155Z,14.85
2023-04-19T11:31:46.385Z,14.87
2023-04-19T11:34:13.580Z,14.95
2023-04-19T11:36:51.547Z,15.02
2023-04-19T11:39:18.860Z,15.03
2023-04-19T11:41:47.176Z,15.08
2023-04-19T11:44:15.487Z,15.28
2023-04-19T11:46:42.957Z,15.47
2023-04-19T11:49:09.704Z,15.55
2023-04-19T11:51:42.165Z,15.54
2023-04-19T11:54:16.802Z,15.48
2023-04-19T11:57:04.570Z,15.35
2023-04-19T11:59:32.833Z,15.08
2023-04-19T12:02:07.719Z,14.88
2023-04-19T12:04:35.091Z,14.71
2023-04-19T12:07:03.565Z,14.58
2023-04-19T12:09:30.413Z,14.51
2023-04-19T12:11:58.632Z,14.51
2023-04-19T12:14:26.691Z,14.52
2023-04-19T12:17:11.471Z,14.59
2023-04-19T12:19:46.322Z,14.74
2023-04-19T12:22:16.013Z,14.93
2023-04-19T12:24:43.452Z,15.10
2023-04-19T12:27:11.341Z,15.26
2023-04-19T12:29:39.332Z,15.41
2023-04-19T12:32:06.566Z,15.53
2023-04-19T12:34:33.534Z,15.69
2023-04-19T12:37:01.572Z,15.84
2023-04-19T12:39:28.903Z,16.01
2023-04-19T12:41:56.256Z,16.25
2023-04-19T12:44:23.251Z,16.39
2023-04-19T12:46:50.028Z,16.49
2023-04-19T12:49:19.643Z,16.60
2023-04-19T12:51:47.809Z,16.65
2023-04-19T12:54:15.315Z,16.60
2023-04-19T12:56:43.733Z,16.30
2023-04-19T12:59:13.324Z,16.20
2023-04-19T13:01:43.689Z,16.28
2023-04-19T13:04:13.905Z,16.33
2023-04-19T13:06:43.644Z,16.41
2023-04-19T13:09:15.048Z,16.49
2023-04-19T13:11:44.651Z,16.47
2023-04-19T13:14:12.758Z,16.47
2023-04-19T13:16:42.287Z,16.50
2023-04-19T13:19:11.610Z,16.62
2023-04-19T13:21:41.178Z,16.84
2023-04-19T13:24:10.708Z,17.03
2023-04-19T13:26:39.579Z,17.30
2023-04-19T13:29:12.607Z,17.86
2023-04-19T13:31:43.894Z,18.63
2023-04-19T13:34:13.012Z,19.21
2023-04-19T13:36:43.007Z,19.53
2023-04-19T13:39:12.655Z,19.56
2023-04-19T13:41:42.240Z,19.48
2023-04-19T13:44:11.047Z,19.40
2023-04-19T13:46:40.735Z,19.35
2023-04-19T13:49:09.158Z,19.52
2023-04-19T13:51:48.979Z,19.83
2023-04-19T13:54:21.221Z,20.24
2023-04-19T14:04:19.550Z,20.45
2023-04-19T14:06:51.486Z,20.23
2023-04-19T14:09:18.153Z,20.04
2023-04-19T14:11:44.804Z,19.94
2023-04-19T14:14:11.594Z,19.80
2023-04-19T14:16:38.305Z,19.63
2023-04-19T14:19:05.112Z,19.49
2023-04-19T14:21:32.196Z,19.34
2023-04-19T14:23:59.789Z,19.12
2023-04-19T14:26:27.717Z,18.89
2023-04-19T14:28:54.598Z,18.57
2023-04-19T14:31:21.280Z,18.19
2023-04-19T14:33:47.903Z,17.81
2023-04-19T14:36:15.627Z,17.22
2023-04-19T14:38:42.221Z,16.54
2023-04-19T14:41:08.873Z,16.03
2023-04-19T14:43:35.447Z,15.69
2023-04-19T14:46:02.052Z,15.39
2023-04-19T14:48:28.769Z,15.14
2023-04-19T14:50:56.131Z,14.93
2023-04-19T14:53:22.918Z,14.72
2023-04-19T14:55:49.745Z,14.53
2023-04-19T14:58:16.471Z,14.39
2023-04-19T15:00:43.358Z,14.29
2023-04-19T15:03:10.245Z,14.19
2023-04-19T15:05:37.324Z,14.10
2023-04-19T15:08:04.242Z,14.02
2023-04-19T15:10:30.968Z,13.91
2023-04-19T15:12:58.059Z,13.82
2023-04-19T15:15:24.620Z,13.77
2023-04-19T15:17:51.489Z,13.71
2023-04-19T15:20:18.245Z,13.65
2023-04-19T15:22:45.055Z,13.59
2023-04-19T15:25:12.055Z,13.53
2023-04-19T15:27:38.810Z,13.49
2023-04-19T15:30:06.681Z,13.48
2023-04-19T15:32:36.839Z,13.46
2023-04-19T15:35:03.994Z,13.46
2023-04-19T15:37:30.701Z,13.44
2023-04-19T15:39:57.331Z,13.41
2023-04-19T15:42:23.933Z,13.40
2023-04-19T15:44:50.758Z,13.38
2023-04-19T15:47:17.559Z,13.32
2023-04-19T15:49:44.293Z,13.25
2023-04-19T15:52:10.880Z,13.16
2023-04-19T15:54:37.801Z,13.14
2023-04-19T15:57:04.549Z,13.12
2023-04-19T15:59:31.695Z,13.11
2023-04-19T16:01:58.502Z,13.09
2023-04-19T16:04:25.769Z,13.08
2023-04-19T16:06:52.758Z,13.05
2023-04-19T16:09:19.435Z,13.01
2023-04-19T16:11:46.112Z,12.99
2023-04-19T16:14:12.747Z,12.98
2023-04-19T16:16:39.479Z,12.95
2023-04-19T16:19:06.292Z,12.89
2023-04-19T16:21:33.023Z,12.82
2023-04-19T16:24:00.978Z,12.71
2023-04-19T16:26:27.665Z,12.61
2023-04-19T16:28:54.363Z,12.58
2023-04-19T16:31:21.344Z,12.54
2023-04-19T16:33:48.036Z,12.52
2023-04-19T16:36:14.572Z,12.52
2023-04-19T16:38:41.110Z,12.49
2023-04-19T16:41:07.917Z,12.48
2023-04-19T16:43:34.678Z,12.47
2023-04-19T16:46:01.886Z,12.47
2023-04-19T16:48:28.575Z,12.45
2023-04-19T16:50:55.211Z,12.46
2023-04-19T16:53:21.866Z,12.44
2023-04-19T16:55:48.556Z,12.43
2023-04-19T16:58:15.268Z,12.40
2023-04-19T17:00:41.848Z,12.34
2023-04-19T17:03:09.564Z,12.31
2023-04-19T17:05:36.560Z,12.25
2023-04-19T17:08:03.476Z,12.15
2023-04-19T17:10:30.244Z,12.01
2023-04-19T17:12:57.065Z,11.89
2023-04-19T17:15:23.883Z,11.81
2023-04-19T17:17:50.715Z,11.72
2023-04-19T17:20:17.532Z,11.62
2023-04-19T17:22:44.084Z,11.50
2023-04-19T17:25:10.938Z,11.39
2023-04-19T17:27:39.017Z,11.27
2023-04-19T17:30:07.312Z,11.16
2023-04-19T17:32:34.064Z,11.07
2023-04-19T17:35:05.043Z,10.97
2023-04-19T17:37:31.682Z,10.89
2023-04-19T17:39:58.431Z,10.81
2023-04-19T17:42:25.982Z,10.74
2023-04-19T17:44:53.180Z,10.68
2023-04-19T17:47:20.949Z,10.62
2023-04-19T17:49:48.079Z,10.59
2023-04-19T17:52:14.845Z,10.57
2023-04-19T17:54:41.465Z,10.57
2023-04-19T17:57:08.089Z,10.58
2023-04-19T17:59:34.941Z,10.60
2023-04-19T18:02:02.674Z,10.63
2023-04-19T18:04:30.982Z,10.67
2023-04-19T18:06:57.905Z,10.67
2023-04-19T18:09:24.732Z,10.61
2023-04-19T18:11:51.427Z,10.56
2023-04-19T18:14:22.593Z,10.48
2023-04-19T18:16:49.435Z,10.41
2023-04-19T18:19:16.886Z,10.37
2023-04-19T18:21:43.897Z,10.32
2023-04-19T18:24:10.497Z,10.32
2023-04-19T18:26:41.411Z,10.32
2023-04-19T18:29:08.155Z,10.33
2023-04-19T18:31:34.954Z,10.36
2023-04-19T18:34:02.434Z,10.39
2023-04-19T18:36:29.276Z,10.43
2023-04-19T18:38:56.319Z,10.45
2023-04-19T18:41:23.254Z,10.47
2023-04-19T18:44:08.206Z,10.50
2023-04-19T18:46:36.589Z,10.51
2023-04-19T18:49:03.365Z,10.59
2023-04-19T18:51:30.803Z,10.66
2023-04-19T18:53:57.471Z,10.68
2023-04-19T18:56:56.203Z,10.74
2023-04-19T18:59:11.326Z,10.92
2023-04-19T19:01:38.489Z,11.10
2023-04-19T19:06:35.083Z,11.44
2023-04-19T19:09:01.880Z,11.36
2023-04-19T19:11:54.241Z,11.25
2023-04-19T19:14:15.462Z,11.17
2023-04-19T19:16:51.996Z,11.10
2023-04-19T19:19:20.795Z,11.01
2023-04-19T19:21:47.513Z,10.94
2023-04-19T19:24:14.139Z,10.89
2023-04-19T19:26:40.737Z,10.84
2023-04-19T19:29:10.788Z,10.81
2023-04-19T19:31:37.453Z,10.81
2023-04-19T19:34:22.659Z,10.82
2023-04-19T19:36:51.344Z,10.81
2023-04-19T19:39:18.286Z,10.80
2023-04-19T19:44:15.412Z,10.76
2023-04-19T19:46:45.778Z,10.73
2023-04-19T19:49:15.123Z,10.68
2023-04-19T19:51:57.628Z,10.64
2023-04-19T19:54:26.709Z,10.62
2023-04-19T19:59:30.572Z,10.53
2023-04-19T20:02:02.413Z,10.50
2023-04-19T20:04:29.652Z,10.46
2023-04-19T20:07:28.779Z,10.44
2023-04-19T20:09:43.724Z,10.42
2023-04-19T20:12:13.449Z,10.38
2023-04-19T20:14:40.866Z,10.36
2023-04-19T20:17:07.725Z,10.32
2023-04-19T20:19:35.999Z,10.32
2023-04-19T20:22:03.081Z,10.33
2023-04-19T20:24:30.961Z,10.33
2023-04-19T20:26:57.900Z,10.35
2023-04-19T20:29:24.539Z,10.35
2023-04-19T20:31:51.422Z,10.35
2023-04-19T20:34:18.334Z,10.32
2023-04-19T20:36:48.228Z,10.29
2023-04-19T20:39:15.464Z,10.26
2023-04-19T20:41:43.911Z,10.20
2023-04-19T20:44:10.858Z,10.18
2023-04-19T20:46:37.713Z,10.16
2023-04-19T20:49:04.645Z,10.14
2023-04-19T20:51:31.809Z,10.12
2023-04-19T20:53:58.686Z,10.12
2023-04-19T20:56:25.608Z,10.09
2023-04-19T20:58:52.281Z,10.09
2023-04-19T21:01:20.312Z,10.09
2023-04-19T21:03:48.836Z,10.09
2023-04-19T21:06:15.766Z,10.11
2023-04-19T21:08:43.509Z,10.13
2023-04-19T21:11:10.157Z,10.13
2023-04-19T21:13:36.936Z,10.14
2023-04-19T21:16:03.699Z,10.14
2023-04-19T21:18:31.067Z,10.15
2023-04-19T21:20:58.394Z,10.14
2023-04-19T21:23:25.122Z,10.13
2023-04-19T21:25:52.235Z,10.13
2023-04-19T21:28:19.148Z,10.14
2023-04-19T21:30:46.090Z,10.15
2023-04-19T21:33:13.149Z,10.15
2023-04-19T21:35:39.758Z,10.15
2023-04-19T21:38:06.858Z,10.14
2023-04-19T21:40:33.685Z,10.12
2023-04-19T21:43:00.732Z,10.10
2023-04-19T21:45:27.567Z,10.09
2023-04-19T21:47:54.336Z,10.09
2023-04-19T21:50:21.016Z,10.09
2023-04-19T21:52:47.758Z,10.09
2023-04-19T21:55:14.513Z,10.09
2023-04-19T21:57:41.193Z,10.07
2023-04-19T22:00:11.419Z,10.05
2023-04-19T22:02:39.939Z,10.03
2023-04-19T22:05:08.701Z,10.01
2023-04-19T22:07:38.231Z,10.00
2023-04-19T22:10:06.247Z,10.00
2023-04-19T22:12:34.132Z,10.00
2023-04-19T22:15:02.335Z,10.00
2023-04-19T22:17:29.581Z,10.00
2023-04-19T22:19:56.296Z,10.01
2023-04-19T22:22:22.855Z,10.00
2023-04-19T22:24:57.503Z,9.97
2023-04-19T22:27:25.733Z,9.94
2023-04-19T22:29:53.167Z,9.91
2023-04-19T22:32:19.773Z,9.86
2023-04-19T22:34:46.687Z,9.83
2023-04-19T22:37:13.220Z,9.79
2023-04-19T22:39:39.777Z,9.74
2023-04-19T22:42:06.329Z,9.71
2023-04-19T22:44:32.889Z,9.67
2023-04-19T22:47:00.184Z,9.64
2023-04-19T22:49:27.042Z,9.59
2023-04-19T22:51:58.521Z,9.56
2023-04-19T22:54:26.073Z,9.54
2023-04-19T22:56:52.659Z,9.53
2023-04-19T22:59:19.522Z,9.51
2023-04-19T23:01:46.396Z,9.49
2023-04-19T23:04:16.490Z,9.44
2023-04-19T23:06:44.269Z,9.39
2023-04-19T23:09:13.654Z,9.31
2023-04-19T23:11:40.907Z,9.23
2023-04-19T23:14:10.608Z,9.17
2023-04-19T23:16:38.794Z,9.10
2023-04-19T23:19:07.479Z,9.04
2023-04-19T23:21:34.562Z,9.00
2023-04-19T23:24:01.302Z,8.97
2023-04-19T23:26:27.908Z,8.94
2023-04-19T23:28:54.527Z,8.92
2023-04-19T23:31:23.534Z,8.90
2023-04-19T23:33:50.530Z,8.89
2023-04-19T23:36:17.025Z,8.88
2023-04-19T23:38:43.625Z,8.88
2023-04-19T23:41:12.191Z,8.88
2023-04-19T23:43:38.777Z,8.88
2023-04-19T23:46:06.688Z,8.88
2023-04-19T23:48:33.524Z,8.89
2023-04-19T23:51:00.122Z,8.90
2023-04-19T23:53:26.660Z,8.93
2023-04-19T23:55:53.258Z,8.97
2023-04-19T23:58:19.809Z,9.00
